createdAt,value
2023-04-28T00:01:26.971Z,31.12
2023-04-28T00:03:55.406Z,31.16
2023-04-28T00:06:24.028Z,30.79
2023-04-28T00:08:53.746Z,30.67
2023-04-28T00:11:22.163Z,31.36
2023-04-28T00:13:50.778Z,31.14
2023-04-28T00:16:19.218Z,30.80
2023-04-28T00:18:47.883Z,30.83
2023-04-28T00:21:16.305Z,30.72
2023-04-28T00:23:44.674Z,30.53
2023-04-28T00:26:14.434Z,30.64
2023-04-28T00:28:42.826Z,30.26
2023-04-28T00:31:14.669Z,30.47
2023-04-28T00:33:43.368Z,30.26
2023-04-28T00:36:12.226Z,30.14
2023-04-28T00:38:40.700Z,30.42
2023-04-28T00:41:10.918Z,30.13
2023-04-28T00:43:48.392Z,30.32
2023-04-28T00:46:23.648Z,30.23
2023-04-28T00:48:52.074Z,30.08
2023-04-28T00:51:21.233Z,30.19
2023-04-28T00:53:49.716Z,30.00
2023-04-28T00:56:18.091Z,30.15
2023-04-28T00:58:47.825Z,29.93
2023-04-28T01:01:16.332Z,30.20
2023-04-28T01:03:44.911Z,29.92
2023-04-28T01:06:13.470Z,30.33
2023-04-28T01:08:42.452Z,30.34
2023-04-28T01:11:14.284Z,30.26
2023-04-28T01:13:42.808Z,30.07
2023-04-28T01:16:12.615Z,30.21
2023-04-28T01:18:42.534Z,29.94
2023-04-28T01:21:10.904Z,30.09
2023-04-28T01:23:39.390Z,30.13
2023-04-28T01:26:09.146Z,29.99
2023-04-28T01:28:37.792Z,29.81
2023-04-28T01:31:06.312Z,30.15
2023-04-28T01:33:34.753Z,30.04
2023-04-28T01:36:03.169Z,30.15
2023-04-28T01:38:31.490Z,30.12
2023-04-28T01:41:00.566Z,30.46
2023-04-28T01:43:30.392Z,30.03
2023-04-28T01:45:58.833Z,30.26
2023-04-28T01:48:27.254Z,29.79
2023-04-28T01:50:55.594Z,30.05
2023-04-28T01:53:23.985Z,30.01
2023-04-28T01:55:52.408Z,30.05
2023-04-28T01:58:20.883Z,30.22
2023-04-28T02:00:50.901Z,30.32
2023-04-28T02:03:19.433Z,30.10
2023-04-28T02:05:47.893Z,30.20
2023-04-28T02:08:16.339Z,30.05
2023-04-28T02:10:45.148Z,30.11
2023-04-28T02:13:13.663Z,30.31
2023-04-28T02:15:42.298Z,30.18
2023-04-28T02:18:12.170Z,30.16
2023-04-28T02:20:40.872Z,30.22
2023-04-28T02:23:09.276Z,30.86
2023-04-28T02:25:37.756Z,30.14
2023-04-28T02:28:06.178Z,30.30
2023-04-28T02:30:34.588Z,30.13
2023-04-28T02:33:03.052Z,30.59
2023-04-28T02:35:32.903Z,30.18
2023-04-28T02:38:01.325Z,30.40
2023-04-28T02:40:29.766Z,30.03
2023-04-28T02:42:58.172Z,30.18
2023-04-28T02:45:26.622Z,30.11
2023-04-28T02:47:55.090Z,30.56
2023-04-28T02:50:23.722Z,30.17
2023-04-28T02:52:53.497Z,30.37
2023-04-28T02:55:24.313Z,30.77
2023-04-28T02:57:53.143Z,30.10
2023-04-28T03:00:21.794Z,30.48
2023-04-28T03:02:50.185Z,30.25
2023-04-28T03:05:18.700Z,30.56
2023-04-28T03:07:47.063Z,30.97
2023-04-28T03:10:16.775Z,31.15
2023-04-28T03:12:45.113Z,30.96
2023-04-28T03:15:14.238Z,31.08
2023-04-28T03:17:43.392Z,30.52
2023-04-28T03:20:13.096Z,30.26
2023-04-28T03:22:41.542Z,30.58
2023-04-28T03:25:10.619Z,30.46
2023-04-28T03:27:40.346Z,30.07
2023-04-28T03:30:10.473Z,30.23
2023-04-28T03:32:38.903Z,29.85
2023-04-28T03:35:07.940Z,30.16
2023-04-28T03:37:36.299Z,30.39
2023-04-28T03:40:05.268Z,30.04
2023-04-28T03:42:33.624Z,29.92
2023-04-28T03:45:03.484Z,29.84
2023-04-28T03:47:31.816Z,30.57
2023-04-28T03:50:00.195Z,30.89
2023-04-28T03:52:29.701Z,30.09
2023-04-28T03:54:58.118Z,30.32
2023-04-28T03:57:26.577Z,30.66
2023-04-28T03:59:54.956Z,30.63
2023-04-28T04:02:25.089Z,30.00
2023-04-28T04:04:53.675Z,30.87
2023-04-28T04:07:22.810Z,29.72
2023-04-28T04:09:51.546Z,30.53
2023-04-28T04:12:19.996Z,29.61
2023-04-28T04:14:48.384Z,29.90
2023-04-28T04:17:17.131Z,29.74
2023-04-28T04:19:46.886Z,29.57
2023-04-28T04:22:15.271Z,29.75
2023-04-28T04:24:43.896Z,29.79
2023-04-28T04:27:12.285Z,29.66
2023-04-28T04:29:40.958Z,29.66
2023-04-28T04:32:09.275Z,29.61
2023-04-28T04:34:37.640Z,29.88
2023-04-28T04:37:07.454Z,29.40
2023-04-28T04:39:35.824Z,30.00
2023-04-28T04:42:16.863Z,30.45
2023-04-28T04:44:52.317Z,30.87
2023-04-28T04:47:20.691Z,31.44
2023-04-28T04:49:50.046Z,31.38
2023-04-28T04:52:19.914Z,31.40
2023-04-28T04:54:48.274Z,31.67
2023-04-28T04:57:16.649Z,31.81
2023-04-28T04:59:46.077Z,31.60
2023-04-28T05:02:14.508Z,31.77
2023-04-28T05:04:42.981Z,31.81
2023-04-28T05:07:11.494Z,31.82
2023-04-28T05:09:41.261Z,31.65
2023-04-28T05:12:09.728Z,31.77
2023-04-28T05:14:38.222Z,31.81
2023-04-28T05:17:06.667Z,31.94
2023-04-28T05:19:35.078Z,32.78
2023-04-28T05:22:03.566Z,32.09
2023-04-28T05:24:31.929Z,32.03
2023-04-28T05:27:02.319Z,32.21
2023-04-28T05:29:30.697Z,32.14
2023-04-28T05:31:59.144Z,31.49
2023-04-28T05:34:27.656Z,31.17
2023-04-28T05:36:56.014Z,31.86
2023-04-28T05:39:24.418Z,32.32
2023-04-28T05:41:52.858Z,31.85
2023-04-28T05:44:22.576Z,31.60
2023-04-28T05:46:51.056Z,31.61
2023-04-28T05:49:19.438Z,32.33
2023-04-28T05:51:47.795Z,32.64
2023-04-28T05:54:16.483Z,32.24
2023-04-28T05:56:45.052Z,32.83
2023-04-28T05:59:13.524Z,31.96
2023-04-28T06:01:43.402Z,31.65
2023-04-28T06:04:12.186Z,31.78
2023-04-28T06:06:40.797Z,31.61
2023-04-28T06:09:09.180Z,31.62
2023-04-28T06:11:37.541Z,31.29
2023-04-28T06:14:05.941Z,31.27
2023-04-28T06:16:34.500Z,32.37
2023-04-28T06:19:04.996Z,32.52
2023-04-28T06:21:33.752Z,33.29
2023-04-28T06:24:02.380Z,34.42
2023-04-28T06:26:31.005Z,34.16
2023-04-28T06:28:59.366Z,34.60
2023-04-28T06:31:28.292Z,33.85
2023-04-28T06:33:56.733Z,34.38
2023-04-28T06:36:26.869Z,34.24
2023-04-28T06:38:55.888Z,34.11
2023-04-28T06:41:24.373Z,33.91
2023-04-28T06:43:52.771Z,33.67
2023-04-28T06:46:21.248Z,33.52
2023-04-28T06:48:49.673Z,33.79
2023-04-28T06:51:18.146Z,33.71
2023-04-28T06:53:47.894Z,33.84
2023-04-28T06:56:16.299Z,31.74
2023-04-28T06:58:45.072Z,33.29
2023-04-28T07:01:13.519Z,33.16
2023-04-28T07:03:42.083Z,33.53
2023-04-28T07:06:13.007Z,33.25
2023-04-28T07:08:42.694Z,33.16
2023-04-28T07:11:12.519Z,33.27
2023-04-28T07:13:40.978Z,33.27
2023-04-28T07:16:10.441Z,32.56
2023-04-28T07:18:38.847Z,32.90
2023-04-28T07:21:07.433Z,32.99
2023-04-28T07:23:36.018Z,33.14
2023-04-28T07:26:04.360Z,32.92
2023-04-28T07:28:35.374Z,32.96
2023-04-28T07:31:03.740Z,33.37
2023-04-28T07:33:32.181Z,33.10
2023-04-28T07:36:00.584Z,32.98
2023-04-28T07:38:29.323Z,33.17
2023-04-28T07:40:57.971Z,32.85
2023-04-28T07:43:26.549Z,33.16
2023-04-28T07:45:56.339Z,32.91
2023-04-28T07:48:24.878Z,32.90
2023-04-28T07:50:53.320Z,33.16
2023-04-28T07:53:21.728Z,32.97
2023-04-28T07:55:50.492Z,33.28
2023-04-28T07:58:18.921Z,33.17
2023-04-28T08:00:47.441Z,33.36
2023-04-28T08:03:17.306Z,33.14
2023-04-28T08:05:46.065Z,33.67
2023-04-28T08:08:14.703Z,33.79
2023-04-28T08:10:43.939Z,34.66
2023-04-28T08:13:12.330Z,34.42
2023-04-28T08:15:40.820Z,34.35
2023-04-28T08:18:09.420Z,34.77
2023-04-28T08:20:39.453Z,34.50
2023-04-28T08:23:08.763Z,34.24
2023-04-28T08:25:37.268Z,34.07
2023-04-28T08:28:06.480Z,34.10
2023-04-28T08:30:35.694Z,33.96
2023-04-28T08:33:04.985Z,34.02
2023-04-28T08:35:35.128Z,34.15
2023-04-28T08:38:05.499Z,34.36
2023-04-28T08:40:34.182Z,34.27
2023-04-28T08:43:03.094Z,34.64
2023-04-28T08:45:32.073Z,34.57
2023-04-28T08:48:00.745Z,34.57
2023-04-28T08:50:29.181Z,34.74
2023-04-28T08:52:57.549Z,34.85
2023-04-28T08:56:50.489Z,34.80
2023-04-28T08:59:19.123Z,35.31
2023-04-28T09:01:49.685Z,34.33
2023-04-28T09:04:19.337Z,35.41
2023-04-28T09:06:48.214Z,35.15
2023-04-28T09:09:23.595Z,34.45
2023-04-28T09:11:59.604Z,34.88
2023-04-28T09:14:28.299Z,34.51
2023-04-28T09:16:56.906Z,34.81
2023-04-28T09:19:25.456Z,34.81
2023-04-28T09:21:55.407Z,34.33
2023-04-28T09:24:33.388Z,34.56
2023-04-28T09:27:04.702Z,34.54
2023-04-28T09:29:33.446Z,34.74
2023-04-28T09:32:18.130Z,35.59
2023-04-28T09:34:48.484Z,37.32
2023-04-28T09:37:18.070Z,36.90
2023-04-28T09:39:46.928Z,35.50
2023-04-28T09:42:35.702Z,36.46
2023-04-28T09:45:04.689Z,35.24
2023-04-28T09:47:35.165Z,35.29
2023-04-28T09:50:05.023Z,35.60
2023-04-28T09:52:34.516Z,35.49
2023-04-28T09:55:04.082Z,35.49
2023-04-28T09:57:34.541Z,35.44
2023-04-28T10:00:05.896Z,35.03
2023-04-28T10:05:08.967Z,34.98
2023-04-28T10:07:37.708Z,34.81
2023-04-28T10:10:07.126Z,34.93
2023-04-28T10:12:38.828Z,35.12
2023-04-28T10:15:09.673Z,35.00
2023-04-28T10:17:38.443Z,34.89
2023-04-28T10:20:08.959Z,34.81
2023-04-28T10:22:51.160Z,34.88
2023-04-28T10:25:28.582Z,34.39
2023-04-28T10:27:58.724Z,34.65
2023-04-28T10:30:29.641Z,34.71
2023-04-28T10:33:27.441Z,34.79
2023-04-28T10:35:56.095Z,34.85
2023-04-28T10:38:24.540Z,35.59
2023-04-28T10:40:53.944Z,35.01
2023-04-28T10:43:40.196Z,34.69
2023-04-28T10:46:10.266Z,35.06
2023-04-28T10:48:58.090Z,34.75
2023-04-28T10:51:30.492Z,35.03
2023-04-28T10:54:28.219Z,34.99
2023-04-28T10:57:21.984Z,34.77
2023-04-28T10:59:52.402Z,34.92
2023-04-28T11:02:51.396Z,34.76
2023-04-28T11:05:20.840Z,34.88
2023-04-28T11:08:34.652Z,34.53
2023-04-28T11:11:23.889Z,34.66
2023-04-28T11:13:52.528Z,34.88
2023-04-28T11:16:25.920Z,34.76
2023-04-28T11:19:03.232Z,34.72
2023-04-28T11:21:32.682Z,34.86
2023-04-28T11:24:01.297Z,34.78
2023-04-28T11:26:30.948Z,34.66
2023-04-28T11:28:59.909Z,34.63
2023-04-28T11:31:29.824Z,34.79
2023-04-28T11:34:01.670Z,35.16
2023-04-28T11:36:33.124Z,33.91
2023-04-28T11:39:01.526Z,32.93
2023-04-28T11:41:29.896Z,32.58
2023-04-28T11:43:58.316Z,30.77
2023-04-28T11:46:27.046Z,28.91
2023-04-28T11:49:04.623Z,29.48
2023-04-28T11:51:38.160Z,30.15
2023-04-28T11:54:07.981Z,30.50
2023-04-28T11:56:42.173Z,30.96
2023-04-28T11:59:11.647Z,29.71
2023-04-28T12:01:47.850Z,28.42
2023-04-28T12:04:28.363Z,26.86
2023-04-28T12:07:04.867Z,25.42
2023-04-28T12:09:33.432Z,28.26
2023-04-28T12:12:04.720Z,28.00
2023-04-28T12:14:35.774Z,26.15
2023-04-28T12:17:05.193Z,25.42
2023-04-28T12:19:46.756Z,26.83
2023-04-28T12:22:17.657Z,28.42
2023-04-28T12:24:46.708Z,25.06
2023-04-28T12:27:21.789Z,24.47
2023-04-28T12:29:51.083Z,23.46
2023-04-28T12:32:20.398Z,24.19
2023-04-28T12:34:51.413Z,26.70
2023-04-28T12:37:19.820Z,26.76
2023-04-28T12:39:48.143Z,27.52
2023-04-28T12:42:16.561Z,26.92
2023-04-28T12:44:46.260Z,26.38
2023-04-28T12:47:14.729Z,27.62
2023-04-28T12:49:43.257Z,25.73
2023-04-28T12:52:13.246Z,25.64
2023-04-28T12:54:47.076Z,26.97
2023-04-28T12:57:15.565Z,24.43
2023-04-28T12:59:44.173Z,24.13
2023-04-28T13:02:12.772Z,25.60
2023-04-28T13:04:43.151Z,24.67
2023-04-28T13:07:13.078Z,24.85
2023-04-28T13:09:42.967Z,23.97
2023-04-28T13:12:12.596Z,23.79
2023-04-28T13:14:40.952Z,25.85
2023-04-28T13:17:10.194Z,25.28
2023-04-28T13:19:39.463Z,25.55
2023-04-28T13:22:09.199Z,25.04
2023-04-28T13:24:38.934Z,24.65
2023-04-28T13:27:09.930Z,24.17
2023-04-28T13:29:38.712Z,24.31
2023-04-28T13:32:07.720Z,23.65
2023-04-28T13:34:38.164Z,25.80
2023-04-28T13:37:06.577Z,24.73
2023-04-28T13:39:34.961Z,23.73
2023-04-28T13:42:06.025Z,23.65
2023-04-28T13:44:34.576Z,23.43
2023-04-28T13:47:03.358Z,24.40
2023-04-28T13:49:31.853Z,23.07
2023-04-28T13:52:00.232Z,24.20
2023-04-28T13:54:28.923Z,24.39
2023-04-28T13:56:58.034Z,24.12
2023-04-28T13:59:27.871Z,24.39
2023-04-28T14:01:56.393Z,24.22
2023-04-28T14:04:25.029Z,25.07
2023-04-28T14:06:54.132Z,25.92
2023-04-28T14:09:22.553Z,26.09
2023-04-28T14:11:51.269Z,25.87
2023-04-28T14:14:19.598Z,26.76
2023-04-28T14:16:49.584Z,26.25
2023-04-28T14:19:18.635Z,26.54
2023-04-28T14:21:47.844Z,26.78
2023-04-28T14:24:16.250Z,27.12
2023-04-28T14:26:45.500Z,27.34
2023-04-28T14:29:13.912Z,27.03
2023-04-28T14:31:42.385Z,27.23
2023-04-28T14:34:12.179Z,27.31
2023-04-28T14:36:42.273Z,26.99
2023-04-28T14:39:10.785Z,27.20
2023-04-28T14:41:39.163Z,27.55
2023-04-28T14:44:08.289Z,27.74
2023-04-28T14:46:37.742Z,27.73
2023-04-28T14:49:06.773Z,27.87
2023-04-28T14:51:36.636Z,27.86
2023-04-28T14:54:05.270Z,27.76
2023-04-28T14:56:34.036Z,27.71
2023-04-28T14:59:02.738Z,28.02
2023-04-28T15:01:32.012Z,27.61
2023-04-28T15:04:00.760Z,27.69
2023-04-28T15:06:29.337Z,27.89
2023-04-28T15:08:59.100Z,27.86
2023-04-28T15:11:27.703Z,28.01
2023-04-28T15:13:56.816Z,28.14
2023-04-28T15:16:25.198Z,28.05
2023-04-28T15:18:53.649Z,28.05
2023-04-28T15:21:22.050Z,28.23
2023-04-28T15:23:50.658Z,28.11
2023-04-28T15:26:20.397Z,28.07
2023-04-28T15:28:48.848Z,28.31
2023-04-28T15:31:17.349Z,28.35
2023-04-28T15:33:45.907Z,28.31
2023-04-28T15:36:14.794Z,28.25
2023-04-28T15:38:45.295Z,28.14
2023-04-28T15:41:13.966Z,27.32
2023-04-28T15:43:44.464Z,28.21
2023-04-28T15:46:14.817Z,28.27
2023-04-28T15:48:43.794Z,28.01
2023-04-28T15:51:12.357Z,28.41
2023-04-28T15:53:40.982Z,28.59
2023-04-28T15:56:09.619Z,28.72
2023-04-28T15:58:38.169Z,28.60
2023-04-28T16:01:08.940Z,28.65
2023-04-28T16:03:37.913Z,28.53
2023-04-28T16:06:07.024Z,28.79
2023-04-28T16:08:35.871Z,28.74
2023-04-28T16:11:05.161Z,28.73
2023-04-28T16:13:37.061Z,29.04
2023-04-28T16:16:09.148Z,28.94
2023-04-28T16:18:39.691Z,28.76
2023-04-28T16:21:08.202Z,28.94
2023-04-28T16:23:36.642Z,28.89
2023-04-28T16:26:05.213Z,29.24
2023-04-28T16:28:34.116Z,29.13
2023-04-28T16:31:02.623Z,29.71
2023-04-28T16:33:32.350Z,29.83
2023-04-28T16:36:00.997Z,29.99
2023-04-28T16:38:29.334Z,30.07
2023-04-28T16:40:57.888Z,29.79
2023-04-28T16:43:26.385Z,30.16
2023-04-28T16:45:54.898Z,30.52
2023-04-28T16:48:23.972Z,30.47
2023-04-28T16:50:54.303Z,30.46
2023-04-28T16:53:23.242Z,30.19
2023-04-28T16:55:51.756Z,30.26
2023-04-28T16:58:20.579Z,30.85
2023-04-28T17:00:48.979Z,30.81
2023-04-28T17:03:17.657Z,30.87
2023-04-28T17:05:46.152Z,31.08
2023-04-28T17:08:16.472Z,31.32
2023-04-28T17:10:46.958Z,31.34
2023-04-28T17:13:15.731Z,31.21
2023-04-28T17:15:44.198Z,30.94
2023-04-28T17:18:12.631Z,30.72
2023-04-28T17:20:41.662Z,30.90
2023-04-28T17:23:10.094Z,30.89
2023-04-28T17:25:40.630Z,31.12
2023-04-28T17:28:09.439Z,31.36
2023-04-28T17:30:38.446Z,31.65
2023-04-28T17:33:06.904Z,31.33
2023-04-28T17:35:35.660Z,31.37
2023-04-28T17:38:04.221Z,31.42
2023-04-28T17:40:32.945Z,31.73
2023-04-28T17:43:04.101Z,31.48
2023-04-28T17:45:32.712Z,31.82
2023-04-28T17:48:01.485Z,31.30
2023-04-28T17:50:30.290Z,31.51
2023-04-28T17:52:58.707Z,31.83
2023-04-28T17:55:27.423Z,31.91
2023-04-28T17:57:55.797Z,32.14
2023-04-28T18:00:25.861Z,31.68
2023-04-28T18:02:55.302Z,32.10
2023-04-28T18:05:24.571Z,31.92
2023-04-28T18:08:09.047Z,31.85
2023-04-28T18:10:45.837Z,32.02
2023-04-28T18:13:14.880Z,32.07
2023-04-28T18:15:51.157Z,32.33
2023-04-28T18:18:20.342Z,31.91
2023-04-28T18:20:49.744Z,31.86
2023-04-28T18:23:21.711Z,32.05
2023-04-28T18:25:50.964Z,32.33
2023-04-28T18:28:23.448Z,32.25
2023-04-28T18:30:52.884Z,32.39
2023-04-28T18:33:30.495Z,32.51
2023-04-28T18:36:10.284Z,32.42
2023-04-28T18:38:42.709Z,32.52
2023-04-28T18:41:15.093Z,32.41
2023-04-28T18:43:50.825Z,32.68
2023-04-28T18:46:24.587Z,32.54
2023-04-28T18:48:57.560Z,32.61
2023-04-28T18:51:32.153Z,32.55
2023-04-28T18:54:03.087Z,32.71
2023-04-28T18:56:32.707Z,32.88
2023-04-28T18:59:12.241Z,32.68
2023-04-28T19:01:47.572Z,32.61
2023-04-28T19:04:23.145Z,32.57
2023-04-28T19:06:58.377Z,32.92
2023-04-28T19:09:32.635Z,32.76
2023-04-28T19:12:02.109Z,32.62
2023-04-28T19:14:36.828Z,32.57
2023-04-28T19:17:08.319Z,32.97
2023-04-28T19:19:40.072Z,32.97
2023-04-28T19:22:36.361Z,33.20
2023-04-28T19:25:21.748Z,32.84
2023-04-28T19:28:08.662Z,33.15
2023-04-28T19:30:41.958Z,33.05
2023-04-28T19:33:27.841Z,32.88
2023-04-28T19:36:05.968Z,32.85
2023-04-28T19:38:37.498Z,32.92
2023-04-28T19:41:15.918Z,33.32
2023-04-28T19:43:50.973Z,33.20
2023-04-28T19:46:33.656Z,32.98
2023-04-28T19:49:10.132Z,33.15
2023-04-28T19:51:45.776Z,33.20
2023-04-28T19:54:20.552Z,33.05
2023-04-28T19:56:51.025Z,32.92
2023-04-28T19:59:24.996Z,32.80
2023-04-28T20:02:11.269Z,32.96
2023-04-28T20:04:52.754Z,33.00
2023-04-28T20:07:21.283Z,31.39
2023-04-28T20:09:49.888Z,30.61
2023-04-28T20:12:18.430Z,30.74
2023-04-28T20:14:47.166Z,30.41
2023-04-28T20:17:15.942Z,30.72
2023-04-28T20:19:46.031Z,29.63
2023-04-28T20:22:14.361Z,29.59
2023-04-28T20:24:42.751Z,30.17
2023-04-28T20:27:12.091Z,31.66
2023-04-28T20:29:40.515Z,32.09
2023-04-28T20:32:09.248Z,32.26
2023-04-28T20:34:38.536Z,32.03
2023-04-28T20:37:08.374Z,32.33
2023-04-28T20:39:36.861Z,32.43
2023-04-28T20:42:06.199Z,32.34
2023-04-28T20:44:34.664Z,32.62
2023-04-28T20:47:03.640Z,32.89
2023-04-28T20:49:32.173Z,32.96
2023-04-28T20:52:04.905Z,32.73
2023-04-28T20:54:36.250Z,32.75
2023-04-28T20:57:04.991Z,32.62
2023-04-28T20:59:33.465Z,32.77
2023-04-28T21:02:01.870Z,32.60
2023-04-28T21:04:30.309Z,32.90
2023-04-28T21:06:58.719Z,32.76
2023-04-28T21:09:27.208Z,32.90
2023-04-28T21:11:57.035Z,32.68
2023-04-28T21:14:25.474Z,32.59
2023-04-28T21:16:53.936Z,33.09
2023-04-28T21:19:22.368Z,33.00
2023-04-28T21:21:50.756Z,32.63
2023-04-28T21:24:19.148Z,32.79
2023-04-28T21:26:47.663Z,32.52
2023-04-28T21:29:18.474Z,32.75
2023-04-28T21:31:47.425Z,32.79
2023-04-28T21:34:15.850Z,33.00
2023-04-28T21:36:44.388Z,32.87
2023-04-28T21:39:12.794Z,32.98
2023-04-28T21:41:41.143Z,32.88
2023-04-28T21:44:09.566Z,32.77
2023-04-28T21:46:39.382Z,32.87
2023-04-28T21:49:08.192Z,32.81
2023-04-28T21:51:36.678Z,32.80
2023-04-28T21:54:05.749Z,33.08
2023-04-28T21:56:34.167Z,33.21
2023-04-28T21:59:03.236Z,32.86
2023-04-28T22:01:32.200Z,33.02
2023-04-28T22:04:02.484Z,32.88
2023-04-28T22:06:31.906Z,32.94
2023-04-28T22:09:01.418Z,33.05
2023-04-28T22:11:29.890Z,32.93
2023-04-28T22:13:58.272Z,33.01
2023-04-28T22:16:26.801Z,32.95
2023-04-28T22:18:55.270Z,32.88
2023-04-28T22:21:25.595Z,33.20
2023-04-28T22:23:53.974Z,33.05
2023-04-28T22:26:22.754Z,32.90
2023-04-28T22:28:51.654Z,32.92
2023-04-28T22:31:20.566Z,33.08
2023-04-28T22:33:48.951Z,32.84
2023-04-28T22:36:17.355Z,32.93
2023-04-28T22:38:47.130Z,32.89
2023-04-28T22:41:16.117Z,33.00
2023-04-28T22:43:44.502Z,33.16
2023-04-28T22:46:12.944Z,33.09
2023-04-28T22:48:41.324Z,32.84
2023-04-28T22:51:10.121Z,33.09
2023-04-28T22:53:38.832Z,32.75
2023-04-28T22:56:08.962Z,33.09
2023-04-28T22:58:37.429Z,32.83
2023-04-28T23:01:05.849Z,32.81
2023-04-28T23:03:34.895Z,32.94
2023-04-28T23:06:03.846Z,33.17
2023-04-28T23:08:32.272Z,33.06
2023-04-28T23:11:00.677Z,32.96
2023-04-28T23:13:30.491Z,32.96
2023-04-28T23:16:00.400Z,32.92
2023-04-28T23:18:32.999Z,33.06
2023-04-28T23:21:01.422Z,33.10
2023-04-28T23:23:29.849Z,33.06
2023-04-28T23:25:58.249Z,33.19
2023-04-28T23:28:26.796Z,32.89
2023-04-28T23:30:56.506Z,32.93
2023-04-28T23:33:24.920Z,33.02
2023-04-28T23:35:53.527Z,32.89
2023-04-28T23:38:22.123Z,33.04
2023-04-28T23:40:50.484Z,33.10
2023-04-28T23:43:18.871Z,33.10
2023-04-28T23:45:47.248Z,32.91
2023-04-28T23:48:17.359Z,33.12
2023-04-28T23:50:45.926Z,33.11
2023-04-28T23:53:14.268Z,32.87
2023-04-28T23:55:42.633Z,33.04
2023-04-28T23:58:11.027Z,32.95
